Terminal Aerodrome Forecast
Issued by NWS

Home | Current Version | Previous Version | Graphics & Text | Print | Product List | Glossary On
Versions: 1 2 3 4 5 6 7 8 9 10 11 12 13 14 15 16 17
000
FTUS43 KOAX 240458 AAB
TAFCDR
TAF AMD
KCDR 240458Z 2405/2424 16013G20KT P6SM SCT250
     FM241100 19011KT P6SM SCT250
     FM241800 21016G24KT P6SM FEW250=

USA.gov is the U.S. government's official web portal to all federal, state and local government web resources and services.